world map with LIRL marked

LIRL - Airport

This information may not be accurate or current and is not valid for navigation or flight planning. No warranty of fitness for any purpose is made or implied.

flag of Lazioflag of Italy

Donate via PayPal

Additional information is available on the NEW Great Circle Mapper

Location
City:  Latina, Lazio, Italy
Name:E Comani
ICAO / IATA:LIRL / QLT

Details
Type:Airport (Aerodrome, Airfield)
Use:Public/Civil, Military
Latitude:41°32'33"N (41.542436)
Longitude:12°54'32"E (12.909019)
Datum:WGS 1984
Elevation:93 ft (28 m)
Runways:1
Longest:5577 × 131 ft (1700 × 40 m)

Time
Timezone:UTC+1 (DST+4)
Local Time:

Weather
METAR:LIRL  041155Z 32003KT 9999 FEW040 16/06 Q1014 RMK SCT SCT200 MON LIB NC VIS MIN 9999 WIND THR12 33004KT WIND THR30 33004KT BLU
TAF:LIRL  (expired)

Related Locations
Nearby:
Farthest:CHT: 11938 mi / 19213 km
Waitangi [Tuuta], CIT, NZ

Find:

   beyond  
but within

Other Information
Maps:
Sources:

  


 


Great Circle Mapper   Great Circle Mapper
Great Circle Mapper FAQ   Great Circle Mapper FAQ
  Karl's Home Page
KLSē   KLSē Home
   GC on Facebook
Airlines of the World   Airlines of the World
Donate via PayPal


Copyright © 2004-2020, Karl L. Swartz. All rights reserved.
All trademarks mentioned herein belong to their respective owners.

Please see credits for attribution and copyright information.

Karl Swartz <karl@kls2.com>
  Powered by FreeBSD
Valid HTML 4.01!
Labeled with ICRA
hCard Microformat
Geo Microformat